sensor_id;sensor_type;location;lat;lon;timestamp;P1;durP1;ratioP1;P2;durP2;ratioP2
54177;SDS011;40085;53.004;6.770;2023-05-07T00:01:33;14.48;;;5.65;;
54177;SDS011;40085;53.004;6.770;2023-05-07T00:03:58;10.95;;;5.57;;
54177;SDS011;40085;53.004;6.770;2023-05-07T00:06:24;7.20;;;5.22;;
54177;SDS011;40085;53.004;6.770;2023-05-07T00:08:51;7.10;;;4.90;;
54177;SDS011;40085;53.004;6.770;2023-05-07T00:11:17;9.50;;;4.88;;
54177;SDS011;40085;53.004;6.770;2023-05-07T00:13:42;10.52;;;5.53;;
54177;SDS011;40085;53.004;6.770;2023-05-07T00:16:08;9.60;;;5.60;;
54177;SDS011;40085;53.004;6.770;2023-05-07T00:18:33;8.63;;;5.55;;
54177;SDS011;40085;53.004;6.770;2023-05-07T00:20:59;10.60;;;6.03;;
54177;SDS011;40085;53.004;6.770;2023-05-07T00:23:25;8.57;;;5.53;;
54177;SDS011;40085;53.004;6.770;2023-05-07T00:25:50;11.63;;;5.97;;
54177;SDS011;40085;53.004;6.770;2023-05-07T00:28:16;8.45;;;5.60;;
54177;SDS011;40085;53.004;6.770;2023-05-07T00:30:41;9.63;;;5.68;;
54177;SDS011;40085;53.004;6.770;2023-05-07T00:33:07;10.13;;;5.88;;
54177;SDS011;40085;53.004;6.770;2023-05-07T00:35:32;11.77;;;6.10;;
54177;SDS011;40085;53.004;6.770;2023-05-07T00:37:58;12.80;;;6.38;;
54177;SDS011;40085;53.004;6.770;2023-05-07T00:40:23;8.15;;;5.30;;
54177;SDS011;40085;53.004;6.770;2023-05-07T00:42:49;10.25;;;6.13;;
54177;SDS011;40085;53.004;6.770;2023-05-07T00:45:15;9.25;;;5.72;;
54177;SDS011;40085;53.004;6.770;2023-05-07T00:47:41;11.93;;;6.25;;
54177;SDS011;40085;53.004;6.770;2023-05-07T00:50:08;12.73;;;6.53;;
54177;SDS011;40085;53.004;6.770;2023-05-07T00:52:36;12.85;;;7.53;;
54177;SDS011;40085;53.004;6.770;2023-05-07T00:55:04;9.40;;;6.63;;
54177;SDS011;40085;53.004;6.770;2023-05-07T00:57:37;11.73;;;6.07;;
54177;SDS011;40085;53.004;6.770;2023-05-07T01:00:06;9.73;;;6.40;;
54177;SDS011;40085;53.004;6.770;2023-05-07T01:02:36;10.95;;;5.80;;
54177;SDS011;40085;53.004;6.770;2023-05-07T01:05:02;13.05;;;6.95;;
54177;SDS011;40085;53.004;6.770;2023-05-07T01:07:31;11.75;;;6.45;;
54177;SDS011;40085;53.004;6.770;2023-05-07T01:09:58;15.23;;;6.88;;
54177;SDS011;40085;53.004;6.770;2023-05-07T01:12:24;11.38;;;7.20;;
54177;SDS011;40085;53.004;6.770;2023-05-07T01:14:50;12.60;;;6.50;;
54177;SDS011;40085;53.004;6.770;2023-05-07T01:17:17;15.55;;;6.75;;
54177;SDS011;40085;53.004;6.770;2023-05-07T01:19:42;11.50;;;6.32;;
54177;SDS011;40085;53.004;6.770;2023-05-07T01:22:09;17.77;;;8.13;;
54177;SDS011;40085;53.004;6.770;2023-05-07T01:24:39;9.82;;;6.28;;
54177;SDS011;40085;53.004;6.770;2023-05-07T01:27:06;10.25;;;6.15;;
54177;SDS011;40085;53.004;6.770;2023-05-07T01:29:32;13.13;;;6.93;;
54177;SDS011;40085;53.004;6.770;2023-05-07T01:31:58;11.38;;;6.85;;
54177;SDS011;40085;53.004;6.770;2023-05-07T01:34:25;14.45;;;7.43;;
54177;SDS011;40085;53.004;6.770;2023-05-07T01:36:53;11.52;;;6.53;;
54177;SDS011;40085;53.004;6.770;2023-05-07T01:39:21;11.45;;;6.57;;
54177;SDS011;40085;53.004;6.770;2023-05-07T01:41:48;10.38;;;6.93;;
54177;SDS011;40085;53.004;6.770;2023-05-07T01:44:14;9.93;;;6.63;;
54177;SDS011;40085;53.004;6.770;2023-05-07T01:46:41;14.48;;;7.13;;
54177;SDS011;40085;53.004;6.770;2023-05-07T01:49:07;12.35;;;7.10;;
54177;SDS011;40085;53.004;6.770;2023-05-07T01:51:33;10.15;;;6.93;;
54177;SDS011;40085;53.004;6.770;2023-05-07T01:53:59;11.10;;;7.10;;
54177;SDS011;40085;53.004;6.770;2023-05-07T01:56:25;17.92;;;7.10;;
54177;SDS011;40085;53.004;6.770;2023-05-07T01:58:51;10.35;;;7.13;;
54177;SDS011;40085;53.004;6.770;2023-05-07T02:01:17;13.00;;;7.47;;
54177;SDS011;40085;53.004;6.770;2023-05-07T02:03:43;16.40;;;7.40;;
54177;SDS011;40085;53.004;6.770;2023-05-07T02:06:09;13.30;;;7.75;;
54177;SDS011;40085;53.004;6.770;2023-05-07T02:08:34;16.85;;;8.18;;
54177;SDS011;40085;53.004;6.770;2023-05-07T02:11:00;13.80;;;7.72;;
54177;SDS011;40085;53.004;6.770;2023-05-07T02:13:28;16.33;;;8.77;;
54177;SDS011;40085;53.004;6.770;2023-05-07T02:15:54;15.68;;;8.98;;
54177;SDS011;40085;53.004;6.770;2023-05-07T02:18:20;13.38;;;7.85;;
54177;SDS011;40085;53.004;6.770;2023-05-07T02:20:45;21.75;;;9.15;;
54177;SDS011;40085;53.004;6.770;2023-05-07T02:23:11;17.30;;;8.77;;
54177;SDS011;40085;53.004;6.770;2023-05-07T02:25:36;17.38;;;9.82;;
54177;SDS011;40085;53.004;6.770;2023-05-07T02:28:02;16.05;;;9.73;;
54177;SDS011;40085;53.004;6.770;2023-05-07T02:30:28;15.15;;;8.57;;
54177;SDS011;40085;53.004;6.770;2023-05-07T02:32:53;19.27;;;9.48;;
54177;SDS011;40085;53.004;6.770;2023-05-07T02:35:19;21.55;;;10.05;;
54177;SDS011;40085;53.004;6.770;2023-05-07T02:37:45;15.45;;;9.18;;
54177;SDS011;40085;53.004;6.770;2023-05-07T02:40:11;17.08;;;9.52;;
54177;SDS011;40085;53.004;6.770;2023-05-07T02:42:37;20.23;;;9.15;;
54177;SDS011;40085;53.004;6.770;2023-05-07T02:45:02;13.30;;;7.97;;
54177;SDS011;40085;53.004;6.770;2023-05-07T02:47:28;16.73;;;9.68;;
54177;SDS011;40085;53.004;6.770;2023-05-07T02:49:54;19.73;;;10.18;;
54177;SDS011;40085;53.004;6.770;2023-05-07T02:52:20;23.15;;;11.25;;
54177;SDS011;40085;53.004;6.770;2023-05-07T02:54:46;18.17;;;9.10;;
54177;SDS011;40085;53.004;6.770;2023-05-07T02:57:12;13.60;;;9.27;;
54177;SDS011;40085;53.004;6.770;2023-05-07T02:59:37;16.73;;;9.63;;
54177;SDS011;40085;53.004;6.770;2023-05-07T03:02:03;19.17;;;9.88;;
54177;SDS011;40085;53.004;6.770;2023-05-07T03:04:29;19.73;;;10.30;;
54177;SDS011;40085;53.004;6.770;2023-05-07T03:06:54;14.88;;;9.32;;
54177;SDS011;40085;53.004;6.770;2023-05-07T03:09:20;18.42;;;10.25;;
54177;SDS011;40085;53.004;6.770;2023-05-07T03:11:45;20.05;;;9.95;;
54177;SDS011;40085;53.004;6.770;2023-05-07T03:14:11;18.10;;;10.20;;
54177;SDS011;40085;53.004;6.770;2023-05-07T03:16:37;15.52;;;8.80;;
54177;SDS011;40085;53.004;6.770;2023-05-07T03:19:03;20.25;;;9.90;;
54177;SDS011;40085;53.004;6.770;2023-05-07T03:21:28;20.63;;;9.77;;
54177;SDS011;40085;53.004;6.770;2023-05-07T03:23:55;17.83;;;10.10;;
54177;SDS011;40085;53.004;6.770;2023-05-07T03:26:21;20.02;;;10.10;;
54177;SDS011;40085;53.004;6.770;2023-05-07T03:28:47;20.92;;;10.63;;
54177;SDS011;40085;53.004;6.770;2023-05-07T03:31:12;20.10;;;10.38;;
54177;SDS011;40085;53.004;6.770;2023-05-07T03:33:47;22.17;;;10.10;;
54177;SDS011;40085;53.004;6.770;2023-05-07T03:36:21;20.00;;;10.40;;
54177;SDS011;40085;53.004;6.770;2023-05-07T03:38:47;19.50;;;11.75;;
54177;SDS011;40085;53.004;6.770;2023-05-07T03:41:13;18.10;;;10.68;;
54177;SDS011;40085;53.004;6.770;2023-05-07T03:43:39;17.50;;;10.07;;
54177;SDS011;40085;53.004;6.770;2023-05-07T03:46:05;14.18;;;8.60;;
54177;SDS011;40085;53.004;6.770;2023-05-07T03:48:30;16.48;;;9.60;;
54177;SDS011;40085;53.004;6.770;2023-05-07T03:50:56;16.63;;;9.10;;
54177;SDS011;40085;53.004;6.770;2023-05-07T03:53:23;19.55;;;9.65;;
54177;SDS011;40085;53.004;6.770;2023-05-07T03:55:48;19.98;;;9.15;;
54177;SDS011;40085;53.004;6.770;2023-05-07T03:58:14;18.50;;;10.23;;
54177;SDS011;40085;53.004;6.770;2023-05-07T04:00:40;17.15;;;9.02;;
54177;SDS011;40085;53.004;6.770;2023-05-07T04:03:06;18.70;;;9.23;;
54177;SDS011;40085;53.004;6.770;2023-05-07T04:05:32;16.38;;;8.80;;
54177;SDS011;40085;53.004;6.770;2023-05-07T04:07:58;19.65;;;9.05;;
54177;SDS011;40085;53.004;6.770;2023-05-07T04:10:24;17.92;;;10.55;;
54177;SDS011;40085;53.004;6.770;2023-05-07T04:12:49;16.25;;;8.63;;
54177;SDS011;40085;53.004;6.770;2023-05-07T04:15:15;16.10;;;9.20;;
54177;SDS011;40085;53.004;6.770;2023-05-07T04:17:41;17.00;;;9.35;;
54177;SDS011;40085;53.004;6.770;2023-05-07T04:20:10;16.90;;;9.00;;
54177;SDS011;40085;53.004;6.770;2023-05-07T04:22:39;18.08;;;9.10;;
54177;SDS011;40085;53.004;6.770;2023-05-07T04:25:04;13.30;;;8.32;;
54177;SDS011;40085;53.004;6.770;2023-05-07T04:27:30;21.00;;;9.02;;
54177;SDS011;40085;53.004;6.770;2023-05-07T04:29:57;14.93;;;8.98;;
54177;SDS011;40085;53.004;6.770;2023-05-07T04:32:23;25.35;;;8.90;;
54177;SDS011;40085;53.004;6.770;2023-05-07T04:34:50;14.55;;;8.52;;
54177;SDS011;40085;53.004;6.770;2023-05-07T04:37:15;17.63;;;9.57;;
54177;SDS011;40085;53.004;6.770;2023-05-07T04:39:41;15.65;;;8.57;;
54177;SDS011;40085;53.004;6.770;2023-05-07T04:42:06;18.13;;;9.15;;
54177;SDS011;40085;53.004;6.770;2023-05-07T04:44:33;12.38;;;7.85;;
54177;SDS011;40085;53.004;6.770;2023-05-07T04:47:00;14.55;;;7.93;;
54177;SDS011;40085;53.004;6.770;2023-05-07T04:49:26;18.10;;;8.30;;
54177;SDS011;40085;53.004;6.770;2023-05-07T04:51:51;13.07;;;9.00;;
54177;SDS011;40085;53.004;6.770;2023-05-07T04:54:17;16.25;;;7.68;;
54177;SDS011;40085;53.004;6.770;2023-05-07T04:56:42;16.20;;;7.57;;
54177;SDS011;40085;53.004;6.770;2023-05-07T04:59:08;13.13;;;7.97;;
54177;SDS011;40085;53.004;6.770;2023-05-07T05:01:34;16.50;;;8.23;;
54177;SDS011;40085;53.004;6.770;2023-05-07T05:03:59;11.70;;;8.10;;
54177;SDS011;40085;53.004;6.770;2023-05-07T05:06:25;15.13;;;8.10;;
54177;SDS011;40085;53.004;6.770;2023-05-07T05:08:51;17.15;;;8.05;;
54177;SDS011;40085;53.004;6.770;2023-05-07T05:11:17;13.75;;;8.00;;
54177;SDS011;40085;53.004;6.770;2023-05-07T05:13:42;16.92;;;8.35;;
54177;SDS011;40085;53.004;6.770;2023-05-07T05:16:08;13.77;;;8.00;;
54177;SDS011;40085;53.004;6.770;2023-05-07T05:18:34;12.00;;;8.07;;
54177;SDS011;40085;53.004;6.770;2023-05-07T05:20:59;13.70;;;7.40;;
54177;SDS011;40085;53.004;6.770;2023-05-07T05:23:25;13.50;;;8.05;;
54177;SDS011;40085;53.004;6.770;2023-05-07T05:25:55;15.32;;;8.13;;
54177;SDS011;40085;53.004;6.770;2023-05-07T05:28:22;13.60;;;7.65;;
54177;SDS011;40085;53.004;6.770;2023-05-07T05:30:48;14.00;;;8.32;;
54177;SDS011;40085;53.004;6.770;2023-05-07T05:33:14;13.50;;;7.38;;
54177;SDS011;40085;53.004;6.770;2023-05-07T05:35:40;12.98;;;7.55;;
54177;SDS011;40085;53.004;6.770;2023-05-07T05:38:05;10.75;;;7.07;;
54177;SDS011;40085;53.004;6.770;2023-05-07T05:40:31;14.98;;;8.00;;
54177;SDS011;40085;53.004;6.770;2023-05-07T05:42:57;10.98;;;7.32;;
54177;SDS011;40085;53.004;6.770;2023-05-07T05:45:22;9.73;;;7.20;;
54177;SDS011;40085;53.004;6.770;2023-05-07T05:47:48;15.75;;;7.63;;
54177;SDS011;40085;53.004;6.770;2023-05-07T05:50:14;12.60;;;7.13;;
54177;SDS011;40085;53.004;6.770;2023-05-07T05:52:39;12.07;;;7.28;;
54177;SDS011;40085;53.004;6.770;2023-05-07T05:55:06;13.32;;;7.53;;
54177;SDS011;40085;53.004;6.770;2023-05-07T05:57:31;12.77;;;7.97;;
54177;SDS011;40085;53.004;6.770;2023-05-07T05:59:57;11.02;;;7.18;;
54177;SDS011;40085;53.004;6.770;2023-05-07T06:02:23;11.88;;;7.32;;
54177;SDS011;40085;53.004;6.770;2023-05-07T06:04:48;14.25;;;7.50;;
54177;SDS011;40085;53.004;6.770;2023-05-07T06:07:14;11.55;;;7.30;;
54177;SDS011;40085;53.004;6.770;2023-05-07T06:09:40;14.88;;;7.65;;
54177;SDS011;40085;53.004;6.770;2023-05-07T06:12:05;12.75;;;8.15;;
54177;SDS011;40085;53.004;6.770;2023-05-07T06:14:31;14.50;;;8.18;;
54177;SDS011;40085;53.004;6.770;2023-05-07T06:16:57;13.18;;;7.80;;
54177;SDS011;40085;53.004;6.770;2023-05-07T06:19:22;12.55;;;7.28;;
54177;SDS011;40085;53.004;6.770;2023-05-07T06:21:49;12.75;;;8.13;;
54177;SDS011;40085;53.004;6.770;2023-05-07T06:24:15;14.25;;;7.82;;
54177;SDS011;40085;53.004;6.770;2023-05-07T06:26:40;15.57;;;8.43;;
54177;SDS011;40085;53.004;6.770;2023-05-07T06:29:06;12.20;;;7.45;;
54177;SDS011;40085;53.004;6.770;2023-05-07T06:31:31;13.95;;;7.40;;
54177;SDS011;40085;53.004;6.770;2023-05-07T06:33:57;16.20;;;8.45;;
54177;SDS011;40085;53.004;6.770;2023-05-07T06:36:24;13.63;;;7.75;;
54177;SDS011;40085;53.004;6.770;2023-05-07T06:38:49;13.90;;;6.90;;
54177;SDS011;40085;53.004;6.770;2023-05-07T06:41:15;13.95;;;8.80;;
54177;SDS011;40085;53.004;6.770;2023-05-07T06:43:40;18.38;;;8.65;;
54177;SDS011;40085;53.004;6.770;2023-05-07T06:46:06;14.48;;;8.40;;
54177;SDS011;40085;53.004;6.770;2023-05-07T06:48:32;13.65;;;8.10;;
54177;SDS011;40085;53.004;6.770;2023-05-07T06:50:57;15.57;;;8.23;;
54177;SDS011;40085;53.004;6.770;2023-05-07T06:53:23;11.30;;;8.35;;
54177;SDS011;40085;53.004;6.770;2023-05-07T06:55:49;16.52;;;9.02;;
54177;SDS011;40085;53.004;6.770;2023-05-07T06:58:15;12.55;;;7.82;;
54177;SDS011;40085;53.004;6.770;2023-05-07T07:00:40;14.07;;;8.52;;
54177;SDS011;40085;53.004;6.770;2023-05-07T07:03:06;17.63;;;8.88;;
54177;SDS011;40085;53.004;6.770;2023-05-07T07:05:32;15.60;;;9.05;;
54177;SDS011;40085;53.004;6.770;2023-05-07T07:07:58;15.27;;;7.70;;
54177;SDS011;40085;53.004;6.770;2023-05-07T07:10:23;13.88;;;8.70;;
54177;SDS011;40085;53.004;6.770;2023-05-07T07:12:49;14.07;;;8.18;;
54177;SDS011;40085;53.004;6.770;2023-05-07T07:15:15;16.40;;;9.02;;
54177;SDS011;40085;53.004;6.770;2023-05-07T07:17:41;18.40;;;9.43;;
54177;SDS011;40085;53.004;6.770;2023-05-07T07:20:07;15.65;;;9.52;;
54177;SDS011;40085;53.004;6.770;2023-05-07T07:22:33;15.30;;;8.85;;
54177;SDS011;40085;53.004;6.770;2023-05-07T07:24:59;14.88;;;8.65;;
54177;SDS011;40085;53.004;6.770;2023-05-07T07:27:25;16.08;;;8.25;;
54177;SDS011;40085;53.004;6.770;2023-05-07T07:29:50;16.02;;;9.55;;
54177;SDS011;40085;53.004;6.770;2023-05-07T07:32:16;14.05;;;8.82;;
54177;SDS011;40085;53.004;6.770;2023-05-07T07:34:41;16.55;;;9.55;;
54177;SDS011;40085;53.004;6.770;2023-05-07T07:37:07;16.55;;;9.30;;
54177;SDS011;40085;53.004;6.770;2023-05-07T07:39:33;13.77;;;8.40;;
54177;SDS011;40085;53.004;6.770;2023-05-07T07:41:58;16.08;;;8.70;;
54177;SDS011;40085;53.004;6.770;2023-05-07T07:44:24;16.00;;;8.07;;
54177;SDS011;40085;53.004;6.770;2023-05-07T07:46:50;18.38;;;8.82;;
54177;SDS011;40085;53.004;6.770;2023-05-07T07:49:16;18.55;;;9.05;;
54177;SDS011;40085;53.004;6.770;2023-05-07T07:51:42;14.68;;;8.63;;
54177;SDS011;40085;53.004;6.770;2023-05-07T07:54:08;16.17;;;9.35;;
54177;SDS011;40085;53.004;6.770;2023-05-07T07:56:34;14.93;;;8.23;;
54177;SDS011;40085;53.004;6.770;2023-05-07T07:59:00;17.25;;;9.95;;
54177;SDS011;40085;53.004;6.770;2023-05-07T08:01:25;18.48;;;9.30;;
54177;SDS011;40085;53.004;6.770;2023-05-07T08:03:51;15.30;;;9.02;;
54177;SDS011;40085;53.004;6.770;2023-05-07T08:06:17;16.75;;;8.98;;
54177;SDS011;40085;53.004;6.770;2023-05-07T08:08:43;16.77;;;8.77;;
54177;SDS011;40085;53.004;6.770;2023-05-07T08:11:09;18.35;;;10.10;;
54177;SDS011;40085;53.004;6.770;2023-05-07T08:13:35;15.57;;;8.38;;
54177;SDS011;40085;53.004;6.770;2023-05-07T08:16:01;18.45;;;9.82;;
54177;SDS011;40085;53.004;6.770;2023-05-07T08:18:27;19.83;;;9.43;;
54177;SDS011;40085;53.004;6.770;2023-05-07T08:20:54;14.50;;;8.50;;
54177;SDS011;40085;53.004;6.770;2023-05-07T08:23:19;13.65;;;8.18;;
54177;SDS011;40085;53.004;6.770;2023-05-07T08:25:45;15.43;;;9.20;;
54177;SDS011;40085;53.004;6.770;2023-05-07T08:28:11;10.60;;;7.68;;
54177;SDS011;40085;53.004;6.770;2023-05-07T08:30:37;19.65;;;8.95;;
54177;SDS011;40085;53.004;6.770;2023-05-07T08:33:02;15.90;;;8.20;;
54177;SDS011;40085;53.004;6.770;2023-05-07T08:35:28;14.63;;;8.70;;
54177;SDS011;40085;53.004;6.770;2023-05-07T08:37:54;14.52;;;9.43;;
54177;SDS011;40085;53.004;6.770;2023-05-07T08:40:20;19.95;;;9.57;;
54177;SDS011;40085;53.004;6.770;2023-05-07T08:42:49;12.73;;;8.73;;
54177;SDS011;40085;53.004;6.770;2023-05-07T08:45:21;15.75;;;8.52;;
54177;SDS011;40085;53.004;6.770;2023-05-07T08:47:50;15.82;;;8.32;;
54177;SDS011;40085;53.004;6.770;2023-05-07T08:50:17;12.60;;;7.70;;
54177;SDS011;40085;53.004;6.770;2023-05-07T08:52:44;15.32;;;8.70;;
54177;SDS011;40085;53.004;6.770;2023-05-07T08:55:10;15.05;;;8.45;;
54177;SDS011;40085;53.004;6.770;2023-05-07T08:57:37;14.35;;;8.38;;
54177;SDS011;40085;53.004;6.770;2023-05-07T09:00:03;14.75;;;8.27;;
54177;SDS011;40085;53.004;6.770;2023-05-07T09:02:31;13.60;;;7.95;;
54177;SDS011;40085;53.004;6.770;2023-05-07T09:04:57;13.57;;;8.20;;
54177;SDS011;40085;53.004;6.770;2023-05-07T09:07:23;12.27;;;8.10;;
54177;SDS011;40085;53.004;6.770;2023-05-07T09:09:50;17.08;;;9.05;;
54177;SDS011;40085;53.004;6.770;2023-05-07T09:12:17;12.93;;;8.40;;
54177;SDS011;40085;53.004;6.770;2023-05-07T09:14:43;13.63;;;8.32;;
54177;SDS011;40085;53.004;6.770;2023-05-07T09:17:09;14.38;;;8.43;;
54177;SDS011;40085;53.004;6.770;2023-05-07T09:19:34;11.43;;;7.35;;
54177;SDS011;40085;53.004;6.770;2023-05-07T09:22:01;14.68;;;7.72;;
54177;SDS011;40085;53.004;6.770;2023-05-07T09:24:27;15.02;;;8.18;;
54177;SDS011;40085;53.004;6.770;2023-05-07T09:26:58;13.57;;;7.53;;
54177;SDS011;40085;53.004;6.770;2023-05-07T09:29:26;13.10;;;8.57;;
54177;SDS011;40085;53.004;6.770;2023-05-07T09:31:54;12.07;;;7.60;;
54177;SDS011;40085;53.004;6.770;2023-05-07T09:34:20;12.95;;;7.40;;
54177;SDS011;40085;53.004;6.770;2023-05-07T09:36:46;12.65;;;7.80;;
54177;SDS011;40085;53.004;6.770;2023-05-07T09:39:12;13.57;;;7.93;;
54177;SDS011;40085;53.004;6.770;2023-05-07T09:41:44;12.68;;;7.53;;
54177;SDS011;40085;53.004;6.770;2023-05-07T09:44:14;12.00;;;7.68;;
54177;SDS011;40085;53.004;6.770;2023-05-07T09:46:41;14.07;;;7.72;;
54177;SDS011;40085;53.004;6.770;2023-05-07T09:49:10;13.45;;;8.07;;
54177;SDS011;40085;53.004;6.770;2023-05-07T09:51:41;12.32;;;7.00;;
54177;SDS011;40085;53.004;6.770;2023-05-07T09:54:12;13.15;;;7.25;;
54177;SDS011;40085;53.004;6.770;2023-05-07T09:56:38;13.85;;;7.50;;
54177;SDS011;40085;53.004;6.770;2023-05-07T09:59:07;14.85;;;8.52;;
54177;SDS011;40085;53.004;6.770;2023-05-07T10:01:35;13.27;;;7.63;;
54177;SDS011;40085;53.004;6.770;2023-05-07T10:04:02;12.25;;;7.78;;
54177;SDS011;40085;53.004;6.770;2023-05-07T10:06:29;13.93;;;7.65;;
54177;SDS011;40085;53.004;6.770;2023-05-07T10:08:55;12.32;;;7.10;;
54177;SDS011;40085;53.004;6.770;2023-05-07T10:11:21;9.90;;;6.82;;
54177;SDS011;40085;53.004;6.770;2023-05-07T10:13:47;12.50;;;7.43;;
54177;SDS011;40085;53.004;6.770;2023-05-07T10:16:13;12.68;;;7.20;;
54177;SDS011;40085;53.004;6.770;2023-05-07T10:18:40;11.57;;;7.20;;
54177;SDS011;40085;53.004;6.770;2023-05-07T10:21:07;12.30;;;7.63;;
54177;SDS011;40085;53.004;6.770;2023-05-07T10:23:36;10.10;;;6.87;;
54177;SDS011;40085;53.004;6.770;2023-05-07T10:26:04;11.07;;;7.45;;
54177;SDS011;40085;53.004;6.770;2023-05-07T10:28:33;12.45;;;7.20;;
54177;SDS011;40085;53.004;6.770;2023-05-07T10:34:07;16.30;;;7.45;;
54177;SDS011;40085;53.004;6.770;2023-05-07T10:36:41;11.30;;;6.72;;
54177;SDS011;40085;53.004;6.770;2023-05-07T10:39:07;11.52;;;7.22;;
54177;SDS011;40085;53.004;6.770;2023-05-07T10:41:33;13.63;;;7.07;;
54177;SDS011;40085;53.004;6.770;2023-05-07T10:43:58;14.23;;;7.68;;
54177;SDS011;40085;53.004;6.770;2023-05-07T10:46:26;11.25;;;7.47;;
54177;SDS011;40085;53.004;6.770;2023-05-07T10:49:13;11.95;;;7.35;;
54177;SDS011;40085;53.004;6.770;2023-05-07T10:51:38;11.77;;;6.72;;
54177;SDS011;40085;53.004;6.770;2023-05-07T10:56:42;10.85;;;7.22;;
54177;SDS011;40085;53.004;6.770;2023-05-07T11:04:17;13.30;;;7.43;;
54177;SDS011;40085;53.004;6.770;2023-05-07T11:15:11;15.05;;;7.35;;
54177;SDS011;40085;53.004;6.770;2023-05-07T11:18:11;13.95;;;7.13;;
54177;SDS011;40085;53.004;6.770;2023-05-07T11:20:46;12.55;;;7.32;;
54177;SDS011;40085;53.004;6.770;2023-05-07T11:28:30;9.55;;;7.22;;
54177;SDS011;40085;53.004;6.770;2023-05-07T11:33:26;11.88;;;8.05;;
54177;SDS011;40085;53.004;6.770;2023-05-07T11:35:53;10.32;;;6.50;;
54177;SDS011;40085;53.004;6.770;2023-05-07T11:38:18;10.40;;;7.30;;
54177;SDS011;40085;53.004;6.770;2023-05-07T11:40:58;10.43;;;7.10;;
54177;SDS011;40085;53.004;6.770;2023-05-07T11:43:26;11.60;;;6.95;;
54177;SDS011;40085;53.004;6.770;2023-05-07T11:45:52;11.60;;;6.57;;
54177;SDS011;40085;53.004;6.770;2023-05-07T11:48:17;12.55;;;6.57;;
54177;SDS011;40085;53.004;6.770;2023-05-07T11:50:54;16.85;;;7.40;;
54177;SDS011;40085;53.004;6.770;2023-05-07T11:53:27;12.93;;;6.07;;
54177;SDS011;40085;53.004;6.770;2023-05-07T11:56:00;10.48;;;6.38;;
54177;SDS011;40085;53.004;6.770;2023-05-07T11:58:25;9.73;;;6.70;;
54177;SDS011;40085;53.004;6.770;2023-05-07T12:00:51;11.48;;;6.40;;
54177;SDS011;40085;53.004;6.770;2023-05-07T12:03:18;10.68;;;6.93;;
54177;SDS011;40085;53.004;6.770;2023-05-07T12:05:45;8.65;;;5.95;;
54177;SDS011;40085;53.004;6.770;2023-05-07T12:08:14;13.10;;;6.95;;
54177;SDS011;40085;53.004;6.770;2023-05-07T12:10:43;9.75;;;6.22;;
54177;SDS011;40085;53.004;6.770;2023-05-07T12:13:20;13.35;;;7.22;;
54177;SDS011;40085;53.004;6.770;2023-05-07T12:15:50;13.18;;;7.03;;
54177;SDS011;40085;53.004;6.770;2023-05-07T12:18:20;10.93;;;6.97;;
54177;SDS011;40085;53.004;6.770;2023-05-07T12:20:46;12.15;;;6.88;;
54177;SDS011;40085;53.004;6.770;2023-05-07T12:23:13;10.05;;;6.35;;
54177;SDS011;40085;53.004;6.770;2023-05-07T12:25:40;12.65;;;7.22;;
54177;SDS011;40085;53.004;6.770;2023-05-07T12:28:13;12.77;;;6.93;;
54177;SDS011;40085;53.004;6.770;2023-05-07T12:30:40;13.10;;;6.97;;
54177;SDS011;40085;53.004;6.770;2023-05-07T12:33:07;9.15;;;6.05;;
54177;SDS011;40085;53.004;6.770;2023-05-07T12:35:40;13.07;;;7.13;;
54177;SDS011;40085;53.004;6.770;2023-05-07T12:38:10;11.00;;;6.30;;
54177;SDS011;40085;53.004;6.770;2023-05-07T12:40:41;10.60;;;6.40;;
54177;SDS011;40085;53.004;6.770;2023-05-07T12:43:30;9.77;;;6.28;;
54177;SDS011;40085;53.004;6.770;2023-05-07T12:45:56;12.43;;;7.60;;
54177;SDS011;40085;53.004;6.770;2023-05-07T12:48:24;12.32;;;6.55;;
54177;SDS011;40085;53.004;6.770;2023-05-07T12:50:55;8.95;;;6.00;;
54177;SDS011;40085;53.004;6.770;2023-05-07T12:53:22;12.43;;;6.97;;
54177;SDS011;40085;53.004;6.770;2023-05-07T12:55:53;9.73;;;6.40;;
54177;SDS011;40085;53.004;6.770;2023-05-07T13:00:50;9.25;;;6.28;;
54177;SDS011;40085;53.004;6.770;2023-05-07T13:03:20;10.80;;;6.43;;
54177;SDS011;40085;53.004;6.770;2023-05-07T13:05:51;10.27;;;6.20;;
54177;SDS011;40085;53.004;6.770;2023-05-07T13:08:30;13.18;;;6.47;;
54177;SDS011;40085;53.004;6.770;2023-05-07T13:10:58;9.25;;;6.65;;
54177;SDS011;40085;53.004;6.770;2023-05-07T13:13:27;11.98;;;6.45;;
54177;SDS011;40085;53.004;6.770;2023-05-07T13:15:53;11.93;;;6.15;;
54177;SDS011;40085;53.004;6.770;2023-05-07T13:18:19;9.38;;;6.20;;
54177;SDS011;40085;53.004;6.770;2023-05-07T13:20:45;7.85;;;5.85;;
54177;SDS011;40085;53.004;6.770;2023-05-07T13:23:10;8.95;;;6.10;;
54177;SDS011;40085;53.004;6.770;2023-05-07T13:25:36;7.63;;;5.43;;
54177;SDS011;40085;53.004;6.770;2023-05-07T13:28:02;9.02;;;6.18;;
54177;SDS011;40085;53.004;6.770;2023-05-07T13:30:28;9.65;;;6.63;;
54177;SDS011;40085;53.004;6.770;2023-05-07T13:32:54;9.25;;;5.43;;
54177;SDS011;40085;53.004;6.770;2023-05-07T13:35:21;7.47;;;6.18;;
54177;SDS011;40085;53.004;6.770;2023-05-07T13:37:46;8.07;;;6.00;;
54177;SDS011;40085;53.004;6.770;2023-05-07T13:40:14;10.23;;;5.47;;
54177;SDS011;40085;53.004;6.770;2023-05-07T13:42:40;8.38;;;5.10;;
54177;SDS011;40085;53.004;6.770;2023-05-07T13:45:06;9.60;;;5.93;;
54177;SDS011;40085;53.004;6.770;2023-05-07T13:47:32;8.57;;;6.00;;
54177;SDS011;40085;53.004;6.770;2023-05-07T13:49:58;7.97;;;5.50;;
54177;SDS011;40085;53.004;6.770;2023-05-07T13:52:23;7.97;;;5.03;;
54177;SDS011;40085;53.004;6.770;2023-05-07T13:54:49;7.03;;;5.10;;
54177;SDS011;40085;53.004;6.770;2023-05-07T13:57:17;7.75;;;5.10;;
54177;SDS011;40085;53.004;6.770;2023-05-07T13:59:42;9.52;;;5.75;;
54177;SDS011;40085;53.004;6.770;2023-05-07T14:02:08;7.80;;;5.10;;
54177;SDS011;40085;53.004;6.770;2023-05-07T14:04:34;10.77;;;7.47;;
54177;SDS011;40085;53.004;6.770;2023-05-07T14:07:00;8.35;;;5.20;;
54177;SDS011;40085;53.004;6.770;2023-05-07T14:09:25;10.02;;;6.05;;
54177;SDS011;40085;53.004;6.770;2023-05-07T14:11:51;9.35;;;5.35;;
54177;SDS011;40085;53.004;6.770;2023-05-07T14:14:17;7.60;;;5.47;;
54177;SDS011;40085;53.004;6.770;2023-05-07T14:16:43;9.82;;;5.53;;
54177;SDS011;40085;53.004;6.770;2023-05-07T14:19:10;7.82;;;5.70;;
54177;SDS011;40085;53.004;6.770;2023-05-07T14:21:36;7.93;;;5.93;;
54177;SDS011;40085;53.004;6.770;2023-05-07T14:24:01;9.07;;;5.20;;
54177;SDS011;40085;53.004;6.770;2023-05-07T14:26:27;9.55;;;5.28;;
54177;SDS011;40085;53.004;6.770;2023-05-07T14:28:54;7.28;;;5.43;;
54177;SDS011;40085;53.004;6.770;2023-05-07T14:31:22;7.28;;;5.25;;
54177;SDS011;40085;53.004;6.770;2023-05-07T14:33:48;9.68;;;5.65;;
54177;SDS011;40085;53.004;6.770;2023-05-07T14:36:15;7.22;;;5.65;;
54177;SDS011;40085;53.004;6.770;2023-05-07T14:38:40;7.75;;;4.95;;
54177;SDS011;40085;53.004;6.770;2023-05-07T14:41:06;7.15;;;5.10;;
54177;SDS011;40085;53.004;6.770;2023-05-07T14:43:31;9.07;;;5.60;;
54177;SDS011;40085;53.004;6.770;2023-05-07T14:45:57;12.05;;;6.65;;
54177;SDS011;40085;53.004;6.770;2023-05-07T14:48:23;9.65;;;5.65;;
54177;SDS011;40085;53.004;6.770;2023-05-07T14:50:48;7.93;;;5.10;;
54177;SDS011;40085;53.004;6.770;2023-05-07T14:53:14;6.90;;;5.13;;
54177;SDS011;40085;53.004;6.770;2023-05-07T14:55:40;10.90;;;5.85;;
54177;SDS011;40085;53.004;6.770;2023-05-07T14:58:06;7.28;;;4.78;;
54177;SDS011;40085;53.004;6.770;2023-05-07T15:00:31;7.68;;;5.55;;
54177;SDS011;40085;53.004;6.770;2023-05-07T15:03:01;7.72;;;4.65;;